AIRPORT ID: VAAMI

DATE: 2021-12-09 ZULU TIME: 0.29 LOCAL TIME: 9.59


METAR KVAAMI 090029Z AUTO 00000KT 7SM 17/13 A2996

ALTIMETER: A2996 Q1015

DENSITY ALT: 700 Ft

WIND DIRECT: 90

WIND SPEED: 3 Gust

WIND CONDITIONS:

VISIBILTY: 7SM 9999M

TEMPERATURE: 63 F 17 C

DEW POINT: 55 F 13 C

HUMID: 74%

LCL: 1,000-3,000 feet

RADIO CHECK: 0

ADVISARIES: 0

GREETINGS: 0

CONVERSATIONS: 0